sensor_id;sensor_type;location;lat;lon;timestamp;pressure;altitude;pressure_sealevel;temperature;humidity
59513;BME280;45330;51.634;5.562;2023-08-20T00:01:30;101972.72;;;18.13;100.00
59513;BME280;45330;51.634;5.562;2023-08-20T00:03:56;101973.78;;;18.03;100.00
59513;BME280;45330;51.634;5.562;2023-08-20T00:06:22;101995.78;;;17.98;100.00
59513;BME280;45330;51.634;5.562;2023-08-20T00:08:48;102001.22;;;17.89;100.00
59513;BME280;45330;51.634;5.562;2023-08-20T00:11:14;102005.72;;;17.82;100.00
59513;BME280;45330;51.634;5.562;2023-08-20T00:13:40;102003.03;;;17.86;100.00
59513;BME280;45330;51.634;5.562;2023-08-20T00:16:06;101992.66;;;17.78;100.00
59513;BME280;45330;51.634;5.562;2023-08-20T00:18:31;101988.38;;;17.71;100.00
59513;BME280;45330;51.634;5.562;2023-08-20T00:20:58;101992.91;;;17.62;100.00
59513;BME280;45330;51.634;5.562;2023-08-20T00:23:26;101975.63;;;17.46;100.00
59513;BME280;45330;51.634;5.562;2023-08-20T00:25:51;102000.94;;;17.53;100.00
59513;BME280;45330;51.634;5.562;2023-08-20T00:28:19;101991.38;;;17.49;100.00
59513;BME280;45330;51.634;5.562;2023-08-20T00:30:44;101981.00;;;17.38;100.00
59513;BME280;45330;51.634;5.562;2023-08-20T00:33:10;101987.22;;;17.36;100.00
59513;BME280;45330;51.634;5.562;2023-08-20T00:35:35;101980.31;;;17.28;100.00
59513;BME280;45330;51.634;5.562;2023-08-20T00:38:01;101976.97;;;17.17;100.00
59513;BME280;45330;51.634;5.562;2023-08-20T00:40:27;101969.25;;;17.06;100.00
59513;BME280;45330;51.634;5.562;2023-08-20T00:42:53;101978.03;;;17.05;100.00
59513;BME280;45330;51.634;5.562;2023-08-20T00:45:18;101998.97;;;17.13;100.00
59513;BME280;45330;51.634;5.562;2023-08-20T00:47:44;101985.94;;;17.04;100.00
59513;BME280;45330;51.634;5.562;2023-08-20T00:50:09;102004.25;;;17.10;100.00
59513;BME280;45330;51.634;5.562;2023-08-20T00:52:36;101994.75;;;17.00;100.00
59513;BME280;45330;51.634;5.562;2023-08-20T00:55:08;102004.44;;;16.97;100.00
59513;BME280;45330;51.634;5.562;2023-08-20T00:57:35;101991.41;;;16.88;100.00
59513;BME280;45330;51.634;5.562;2023-08-20T01:00:00;102001.03;;;16.91;100.00
59513;BME280;45330;51.634;5.562;2023-08-20T01:02:26;102007.09;;;16.94;100.00
59513;BME280;45330;51.634;5.562;2023-08-20T01:04:51;102026.16;;;17.12;100.00
59513;BME280;45330;51.634;5.562;2023-08-20T01:08:21;102036.50;;;17.23;100.00
59513;BME280;45330;51.634;5.562;2023-08-20T01:10:49;102027.66;;;17.30;100.00
59513;BME280;45330;51.634;5.562;2023-08-20T01:13:18;102032.66;;;17.44;100.00
59513;BME280;45330;51.634;5.562;2023-08-20T01:15:44;102051.72;;;17.60;100.00
59513;BME280;45330;51.634;5.562;2023-08-20T01:18:09;102050.72;;;17.67;100.00
59513;BME280;45330;51.634;5.562;2023-08-20T01:20:40;102038.47;;;17.64;100.00
59513;BME280;45330;51.634;5.562;2023-08-20T01:26:25;102057.50;;;17.83;100.00
59513;BME280;45330;51.634;5.562;2023-08-20T01:28:56;102052.19;;;17.85;100.00
59513;BME280;45330;51.634;5.562;2023-08-20T01:31:22;102055.59;;;17.90;100.00
59513;BME280;45330;51.634;5.562;2023-08-20T01:33:48;102060.00;;;17.91;100.00
59513;BME280;45330;51.634;5.562;2023-08-20T01:36:14;102060.91;;;17.92;100.00
59513;BME280;45330;51.634;5.562;2023-08-20T01:38:39;102051.19;;;17.94;100.00
59513;BME280;45330;51.634;5.562;2023-08-20T01:41:05;102041.53;;;17.93;100.00
59513;BME280;45330;51.634;5.562;2023-08-20T01:43:30;102050.19;;;18.01;100.00
59513;BME280;45330;51.634;5.562;2023-08-20T01:45:55;102033.69;;;17.88;100.00
59513;BME280;45330;51.634;5.562;2023-08-20T01:48:21;102018.28;;;17.66;100.00
59513;BME280;45330;51.634;5.562;2023-08-20T01:50:46;102047.16;;;17.71;100.00
59513;BME280;45330;51.634;5.562;2023-08-20T01:53:12;102043.81;;;17.61;100.00
59513;BME280;45330;51.634;5.562;2023-08-20T01:55:37;102036.06;;;17.51;100.00
59513;BME280;45330;51.634;5.562;2023-08-20T01:58:03;102043.13;;;17.50;100.00
59513;BME280;45330;51.634;5.562;2023-08-20T02:00:28;102038.59;;;17.58;100.00
59513;BME280;45330;51.634;5.562;2023-08-20T02:02:55;102055.91;;;17.72;100.00
59513;BME280;45330;51.634;5.562;2023-08-20T02:05:21;102074.28;;;17.76;100.00
59513;BME280;45330;51.634;5.562;2023-08-20T02:07:46;102055.97;;;17.69;100.00
59513;BME280;45330;51.634;5.562;2023-08-20T02:10:11;102071.75;;;17.69;100.00
59513;BME280;45330;51.634;5.562;2023-08-20T02:12:37;102074.38;;;17.70;100.00
59513;BME280;45330;51.634;5.562;2023-08-20T02:15:02;102091.81;;;17.76;100.00
59513;BME280;45330;51.634;5.562;2023-08-20T02:17:29;102080.56;;;17.66;100.00
59513;BME280;45330;51.634;5.562;2023-08-20T02:19:54;102072.69;;;17.66;100.00
59513;BME280;45330;51.634;5.562;2023-08-20T02:22:19;102064.00;;;17.61;100.00
59513;BME280;45330;51.634;5.562;2023-08-20T02:24:46;102078.91;;;17.60;100.00
59513;BME280;45330;51.634;5.562;2023-08-20T02:27:11;102065.97;;;17.46;100.00
59513;BME280;45330;51.634;5.562;2023-08-20T02:29:36;102060.91;;;17.32;100.00
59513;BME280;45330;51.634;5.562;2023-08-20T02:32:02;102069.72;;;17.31;100.00
59513;BME280;45330;51.634;5.562;2023-08-20T02:34:27;102073.31;;;17.26;100.00
59513;BME280;45330;51.634;5.562;2023-08-20T02:36:52;102061.19;;;17.12;100.00
59513;BME280;45330;51.634;5.562;2023-08-20T02:39:18;102061.31;;;17.05;100.00
59513;BME280;45330;51.634;5.562;2023-08-20T02:41:43;102074.38;;;17.11;100.00
59513;BME280;45330;51.634;5.562;2023-08-20T02:44:09;102077.84;;;17.11;100.00
59513;BME280;45330;51.634;5.562;2023-08-20T02:46:34;102070.03;;;17.07;100.00
59513;BME280;45330;51.634;5.562;2023-08-20T02:49:00;102057.06;;;16.94;100.00
59513;BME280;45330;51.634;5.562;2023-08-20T02:51:26;102064.84;;;17.02;100.00
59513;BME280;45330;51.634;5.562;2023-08-20T02:53:51;102056.13;;;16.98;100.00
59513;BME280;45330;51.634;5.562;2023-08-20T02:56:16;102066.63;;;16.98;100.00
59513;BME280;45330;51.634;5.562;2023-08-20T02:58:42;102067.63;;;16.91;100.00
59513;BME280;45330;51.634;5.562;2023-08-20T03:01:17;102047.66;;;16.72;100.00
59513;BME280;45330;51.634;5.562;2023-08-20T03:03:43;102056.31;;;16.81;100.00
59513;BME280;45330;51.634;5.562;2023-08-20T03:06:08;102036.34;;;16.68;100.00
59513;BME280;45330;51.634;5.562;2023-08-20T03:08:33;102026.88;;;16.53;100.00
59513;BME280;45330;51.634;5.562;2023-08-20T03:10:59;102044.34;;;16.57;100.00
59513;BME280;45330;51.634;5.562;2023-08-20T03:13:24;102049.59;;;16.57;100.00
59513;BME280;45330;51.634;5.562;2023-08-20T03:15:50;102048.00;;;16.44;100.00
59513;BME280;45330;51.634;5.562;2023-08-20T03:18:15;102065.50;;;16.45;100.00
59513;BME280;45330;51.634;5.562;2023-08-20T03:20:40;102049.03;;;16.31;100.00
59513;BME280;45330;51.634;5.562;2023-08-20T03:23:06;102041.25;;;16.21;100.00
59513;BME280;45330;51.634;5.562;2023-08-20T03:25:31;102036.13;;;16.09;100.00
59513;BME280;45330;51.634;5.562;2023-08-20T03:27:56;102051.75;;;16.20;100.00
59513;BME280;45330;51.634;5.562;2023-08-20T03:30:22;102040.47;;;16.10;100.00
59513;BME280;45330;51.634;5.562;2023-08-20T03:32:47;102040.56;;;16.04;100.00
59513;BME280;45330;51.634;5.562;2023-08-20T03:35:13;102049.25;;;16.09;100.00
59513;BME280;45330;51.634;5.562;2023-08-20T03:37:38;102056.28;;;16.05;100.00
59513;BME280;45330;51.634;5.562;2023-08-20T03:40:04;102034.53;;;15.92;100.00
59513;BME280;45330;51.634;5.562;2023-08-20T03:42:30;102033.66;;;15.90;100.00
59513;BME280;45330;51.634;5.562;2023-08-20T03:44:55;102039.81;;;15.86;100.00
59513;BME280;45330;51.634;5.562;2023-08-20T03:47:21;102052.03;;;15.90;100.00
59513;BME280;45330;51.634;5.562;2023-08-20T03:49:47;102049.50;;;15.83;100.00
59513;BME280;45330;51.634;5.562;2023-08-20T03:52:15;102052.13;;;15.83;100.00
59513;BME280;45330;51.634;5.562;2023-08-20T03:54:41;102067.88;;;15.81;100.00
59513;BME280;45330;51.634;5.562;2023-08-20T03:57:06;102059.13;;;15.76;100.00
59513;BME280;45330;51.634;5.562;2023-08-20T03:59:33;102064.41;;;15.73;100.00
59513;BME280;45330;51.634;5.562;2023-08-20T04:01:58;102064.44;;;15.70;100.00
59513;BME280;45330;51.634;5.562;2023-08-20T04:04:24;102067.97;;;15.67;100.00
59513;BME280;45330;51.634;5.562;2023-08-20T04:06:49;102071.47;;;15.65;100.00
59513;BME280;45330;51.634;5.562;2023-08-20T04:09:23;102079.34;;;15.65;100.00
59513;BME280;45330;51.634;5.562;2023-08-20T04:11:49;102081.13;;;15.63;100.00
59513;BME280;45330;51.634;5.562;2023-08-20T04:14:14;102069.81;;;15.54;100.00
59513;BME280;45330;51.634;5.562;2023-08-20T04:16:39;102084.66;;;15.57;100.00
59513;BME280;45330;51.634;5.562;2023-08-20T04:19:05;102076.81;;;15.51;100.00
59513;BME280;45330;51.634;5.562;2023-08-20T04:21:30;102082.03;;;15.54;100.00
59513;BME280;45330;51.634;5.562;2023-08-20T04:23:56;102072.47;;;15.45;100.00
59513;BME280;45330;51.634;5.562;2023-08-20T04:26:21;102068.13;;;15.41;100.00
59513;BME280;45330;51.634;5.562;2023-08-20T04:28:46;102074.25;;;15.40;100.00
59513;BME280;45330;51.634;5.562;2023-08-20T04:31:12;102071.63;;;15.38;100.00
59513;BME280;45330;51.634;5.562;2023-08-20T04:33:37;102064.69;;;15.33;100.00
59513;BME280;45330;51.634;5.562;2023-08-20T04:36:02;102081.25;;;15.41;100.00
59513;BME280;45330;51.634;5.562;2023-08-20T04:38:28;102069.09;;;15.31;100.00
59513;BME280;45330;51.634;5.562;2023-08-20T04:40:53;102092.63;;;15.43;100.00
59513;BME280;45330;51.634;5.562;2023-08-20T04:43:18;102078.69;;;15.32;100.00
59513;BME280;45330;51.634;5.562;2023-08-20T04:45:44;102072.59;;;15.28;100.00
59513;BME280;45330;51.634;5.562;2023-08-20T04:48:09;102089.13;;;15.41;100.00
59513;BME280;45330;51.634;5.562;2023-08-20T04:50:35;102096.13;;;15.40;100.00
59513;BME280;45330;51.634;5.562;2023-08-20T04:53:00;102086.50;;;15.41;100.00
59513;BME280;45330;51.634;5.562;2023-08-20T04:55:27;102082.13;;;15.40;100.00
59513;BME280;45330;51.634;5.562;2023-08-20T04:57:52;102068.16;;;15.38;100.00
59513;BME280;45330;51.634;5.562;2023-08-20T05:00:18;102082.97;;;15.47;100.00
59513;BME280;45330;51.634;5.562;2023-08-20T05:02:43;102083.81;;;15.50;100.00
59513;BME280;45330;51.634;5.562;2023-08-20T05:05:08;102089.91;;;15.58;100.00
59513;BME280;45330;51.634;5.562;2023-08-20T05:07:34;102092.41;;;15.71;100.00
59513;BME280;45330;51.634;5.562;2023-08-20T05:10:00;102073.25;;;15.63;100.00
59513;BME280;45330;51.634;5.562;2023-08-20T05:12:25;102076.66;;;15.74;100.00
59513;BME280;45330;51.634;5.562;2023-08-20T05:14:50;102100.16;;;15.92;100.00
59513;BME280;45330;51.634;5.562;2023-08-20T05:17:16;102083.50;;;15.97;100.00
59513;BME280;45330;51.634;5.562;2023-08-20T05:19:41;102106.09;;;16.11;100.00
59513;BME280;45330;51.634;5.562;2023-08-20T05:22:06;102093.88;;;16.10;100.00
59513;BME280;45330;51.634;5.562;2023-08-20T05:24:32;102102.50;;;16.23;100.00
59513;BME280;45330;51.634;5.562;2023-08-20T05:27:09;102108.44;;;16.45;100.00
59513;BME280;45330;51.634;5.562;2023-08-20T05:29:36;102114.28;;;16.72;100.00
59513;BME280;45330;51.634;5.562;2023-08-20T05:32:02;102103.41;;;17.05;100.00
59513;BME280;45330;51.634;5.562;2023-08-20T05:34:27;102118.22;;;18.27;100.00
59513;BME280;45330;51.634;5.562;2023-08-20T05:36:53;102119.88;;;19.61;100.00
59513;BME280;45330;51.634;5.562;2023-08-20T05:39:18;102136.25;;;20.48;100.00
59513;BME280;45330;51.634;5.562;2023-08-20T05:41:43;102118.22;;;21.23;100.00
59513;BME280;45330;51.634;5.562;2023-08-20T05:44:10;102131.78;;;21.98;100.00
59513;BME280;45330;51.634;5.562;2023-08-20T05:46:35;102136.91;;;23.03;100.00
59513;BME280;45330;51.634;5.562;2023-08-20T05:49:00;102134.44;;;23.44;100.00
59513;BME280;45330;51.634;5.562;2023-08-20T05:51:26;102135.69;;;24.23;100.00
59513;BME280;45330;51.634;5.562;2023-08-20T05:53:51;102139.97;;;25.06;100.00
59513;BME280;45330;51.634;5.562;2023-08-20T05:56:17;102151.75;;;25.77;100.00
59513;BME280;45330;51.634;5.562;2023-08-20T05:58:42;102147.19;;;26.33;93.94
59513;BME280;45330;51.634;5.562;2023-08-20T06:01:07;102137.63;;;26.96;85.90
59513;BME280;45330;51.634;5.562;2023-08-20T06:03:33;102144.84;;;27.89;78.04
59513;BME280;45330;51.634;5.562;2023-08-20T06:05:58;102136.88;;;27.58;77.58
59513;BME280;45330;51.634;5.562;2023-08-20T06:08:24;102141.78;;;27.49;77.46
59513;BME280;45330;51.634;5.562;2023-08-20T06:10:50;102144.94;;;27.72;74.53
59513;BME280;45330;51.634;5.562;2023-08-20T06:13:15;102136.59;;;27.62;73.38
59513;BME280;45330;51.634;5.562;2023-08-20T06:15:41;102125.13;;;27.28;74.15
59513;BME280;45330;51.634;5.562;2023-08-20T06:18:06;102142.78;;;26.99;76.48
59513;BME280;45330;51.634;5.562;2023-08-20T06:20:32;102144.56;;;27.16;76.08
59513;BME280;45330;51.634;5.562;2023-08-20T06:22:57;102138.81;;;26.57;74.05
59513;BME280;45330;51.634;5.562;2023-08-20T06:25:22;102143.16;;;25.52;83.31
59513;BME280;45330;51.634;5.562;2023-08-20T06:27:48;102133.16;;;23.99;96.68
59513;BME280;45330;51.634;5.562;2023-08-20T06:30:13;102137.84;;;22.78;100.00
59513;BME280;45330;51.634;5.562;2023-08-20T06:32:39;102137.16;;;21.96;100.00
59513;BME280;45330;51.634;5.562;2023-08-20T06:35:05;102148.22;;;21.54;100.00
59513;BME280;45330;51.634;5.562;2023-08-20T06:37:30;102136.41;;;21.06;100.00
59513;BME280;45330;51.634;5.562;2023-08-20T06:39:56;102144.00;;;20.87;100.00
59513;BME280;45330;51.634;5.562;2023-08-20T06:42:21;102146.97;;;20.76;100.00
59513;BME280;45330;51.634;5.562;2023-08-20T06:44:46;102145.56;;;20.61;100.00
59513;BME280;45330;51.634;5.562;2023-08-20T06:47:12;102142.34;;;20.50;100.00
59513;BME280;45330;51.634;5.562;2023-08-20T06:49:38;102123.31;;;20.37;100.00
59513;BME280;45330;51.634;5.562;2023-08-20T06:52:03;102148.13;;;20.64;100.00
59513;BME280;45330;51.634;5.562;2023-08-20T06:54:29;102141.63;;;20.78;100.00
59513;BME280;45330;51.634;5.562;2023-08-20T06:56:54;102138.97;;;20.78;100.00
59513;BME280;45330;51.634;5.562;2023-08-20T06:59:20;102127.91;;;20.63;100.00
59513;BME280;45330;51.634;5.562;2023-08-20T07:01:45;102145.66;;;20.58;100.00
59513;BME280;45330;51.634;5.562;2023-08-20T07:04:10;102134.81;;;20.34;100.00
59513;BME280;45330;51.634;5.562;2023-08-20T07:06:38;102143.88;;;20.26;100.00
59513;BME280;45330;51.634;5.562;2023-08-20T07:09:04;102146.69;;;20.18;100.00
59513;BME280;45330;51.634;5.562;2023-08-20T07:11:29;102148.72;;;20.08;100.00
59513;BME280;45330;51.634;5.562;2023-08-20T07:13:54;102151.25;;;20.13;100.00
59513;BME280;45330;51.634;5.562;2023-08-20T07:16:20;102152.31;;;20.05;100.00
59513;BME280;45330;51.634;5.562;2023-08-20T07:18:45;102143.75;;;19.96;100.00
59513;BME280;45330;51.634;5.562;2023-08-20T07:21:10;102142.81;;;19.97;100.00
59513;BME280;45330;51.634;5.562;2023-08-20T07:23:36;102140.09;;;20.01;100.00
59513;BME280;45330;51.634;5.562;2023-08-20T07:26:09;102138.25;;;20.03;100.00
59513;BME280;45330;51.634;5.562;2023-08-20T07:28:35;102155.56;;;20.15;100.00
59513;BME280;45330;51.634;5.562;2023-08-20T07:31:19;102151.13;;;20.17;100.00
59513;BME280;45330;51.634;5.562;2023-08-20T07:33:48;102143.38;;;20.10;100.00
59513;BME280;45330;51.634;5.562;2023-08-20T07:36:15;102152.91;;;20.15;100.00
59513;BME280;45330;51.634;5.562;2023-08-20T07:38:41;102149.47;;;20.13;100.00
59513;BME280;45330;51.634;5.562;2023-08-20T07:41:10;102153.69;;;20.20;100.00
59513;BME280;45330;51.634;5.562;2023-08-20T07:43:37;102145.94;;;20.14;100.00
59513;BME280;45330;51.634;5.562;2023-08-20T07:46:03;102149.25;;;20.22;100.00
59513;BME280;45330;51.634;5.562;2023-08-20T07:48:29;102167.38;;;20.36;100.00
59513;BME280;45330;51.634;5.562;2023-08-20T07:50:54;102156.84;;;20.35;100.00
59513;BME280;45330;51.634;5.562;2023-08-20T07:53:20;102159.41;;;20.38;100.00
59513;BME280;45330;51.634;5.562;2023-08-20T07:55:45;102160.19;;;20.42;100.00
59513;BME280;45330;51.634;5.562;2023-08-20T07:58:10;102160.19;;;20.42;100.00
59513;BME280;45330;51.634;5.562;2023-08-20T08:00:36;102169.59;;;20.53;100.00
59513;BME280;45330;51.634;5.562;2023-08-20T08:03:01;102167.75;;;20.55;100.00
59513;BME280;45330;51.634;5.562;2023-08-20T08:05:28;102175.50;;;20.63;100.00
59513;BME280;45330;51.634;5.562;2023-08-20T08:07:53;102182.44;;;20.67;100.00
59513;BME280;45330;51.634;5.562;2023-08-20T08:10:18;102175.41;;;20.66;100.00
59513;BME280;45330;51.634;5.562;2023-08-20T08:12:44;102178.75;;;20.73;100.00
59513;BME280;45330;51.634;5.562;2023-08-20T08:15:09;102183.00;;;20.80;100.00
59513;BME280;45330;51.634;5.562;2023-08-20T08:17:35;102180.22;;;20.85;100.00
59513;BME280;45330;51.634;5.562;2023-08-20T08:20:00;102182.03;;;20.83;100.00
59513;BME280;45330;51.634;5.562;2023-08-20T08:22:25;102181.03;;;20.87;100.00
59513;BME280;45330;51.634;5.562;2023-08-20T08:24:51;102190.56;;;20.94;100.00
59513;BME280;45330;51.634;5.562;2023-08-20T08:27:16;102182.69;;;20.91;100.00
59513;BME280;45330;51.634;5.562;2023-08-20T08:29:42;102177.31;;;20.94;100.00
59513;BME280;45330;51.634;5.562;2023-08-20T08:32:07;102177.94;;;21.02;100.00
59513;BME280;45330;51.634;5.562;2023-08-20T08:34:32;102179.59;;;21.06;100.00
59513;BME280;45330;51.634;5.562;2023-08-20T08:36:58;102186.19;;;21.23;100.00
59513;BME280;45330;51.634;5.562;2023-08-20T08:39:23;102180.09;;;21.21;100.00
59513;BME280;45330;51.634;5.562;2023-08-20T08:41:51;102175.50;;;21.26;100.00
59513;BME280;45330;51.634;5.562;2023-08-20T08:44:16;102188.38;;;21.38;100.00
59513;BME280;45330;51.634;5.562;2023-08-20T08:46:42;102191.13;;;21.35;100.00
59513;BME280;45330;51.634;5.562;2023-08-20T08:49:08;102195.38;;;21.41;100.00
59513;BME280;45330;51.634;5.562;2023-08-20T08:51:34;102195.22;;;21.46;100.00
59513;BME280;45330;51.634;5.562;2023-08-20T08:54:02;102181.88;;;21.49;100.00
59513;BME280;45330;51.634;5.562;2023-08-20T08:56:27;102198.28;;;21.63;100.00
59513;BME280;45330;51.634;5.562;2023-08-20T08:58:54;102189.53;;;21.59;100.00
59513;BME280;45330;51.634;5.562;2023-08-20T09:01:19;102198.28;;;21.62;100.00
59513;BME280;45330;51.634;5.562;2023-08-20T09:03:46;102192.81;;;21.68;100.00
59513;BME280;45330;51.634;5.562;2023-08-20T09:06:12;102181.31;;;21.69;100.00
59513;BME280;45330;51.634;5.562;2023-08-20T09:08:37;102205.63;;;21.82;100.00
59513;BME280;45330;51.634;5.562;2023-08-20T09:11:03;102199.13;;;21.92;100.00
59513;BME280;45330;51.634;5.562;2023-08-20T09:13:42;102195.75;;;21.87;100.00
59513;BME280;45330;51.634;5.562;2023-08-20T09:16:10;102205.16;;;21.97;100.00
59513;BME280;45330;51.634;5.562;2023-08-20T09:18:41;102204.19;;;22.00;100.00
59513;BME280;45330;51.634;5.562;2023-08-20T09:21:11;102176.91;;;21.96;100.00
59513;BME280;45330;51.634;5.562;2023-08-20T09:23:37;102204.53;;;22.16;100.00
59513;BME280;45330;51.634;5.562;2023-08-20T09:26:04;102185.94;;;22.17;100.00
59513;BME280;45330;51.634;5.562;2023-08-20T09:28:54;102200.53;;;22.29;100.00
59513;BME280;45330;51.634;5.562;2023-08-20T09:31:19;102200.47;;;22.32;100.00
59513;BME280;45330;51.634;5.562;2023-08-20T09:33:51;102200.22;;;22.40;100.00
59513;BME280;45330;51.634;5.562;2023-08-20T09:36:17;102209.06;;;22.40;100.00
59513;BME280;45330;51.634;5.562;2023-08-20T09:38:43;102212.56;;;22.41;100.00
59513;BME280;45330;51.634;5.562;2023-08-20T09:41:08;102187.84;;;22.40;100.00
59513;BME280;45330;51.634;5.562;2023-08-20T09:43:38;102208.34;;;22.60;99.63
59513;BME280;45330;51.634;5.562;2023-08-20T09:46:03;102209.16;;;22.63;96.25
59513;BME280;45330;51.634;5.562;2023-08-20T09:48:33;102195.94;;;22.61;91.87
59513;BME280;45330;51.634;5.562;2023-08-20T09:50:59;102191.56;;;22.60;88.30
59513;BME280;45330;51.634;5.562;2023-08-20T09:53:37;102200.28;;;22.64;79.88
59513;BME280;45330;51.634;5.562;2023-08-20T09:56:10;102214.47;;;22.88;82.11
59513;BME280;45330;51.634;5.562;2023-08-20T09:58:40;102199.19;;;22.94;79.61
59513;BME280;45330;51.634;5.562;2023-08-20T10:01:07;102211.91;;;23.10;77.39
59513;BME280;45330;51.634;5.562;2023-08-20T10:03:32;102196.09;;;23.07;79.83
59513;BME280;45330;51.634;5.562;2023-08-20T10:05:58;102207.88;;;23.23;77.10
59513;BME280;45330;51.634;5.562;2023-08-20T10:08:26;102201.13;;;23.15;77.14
59513;BME280;45330;51.634;5.562;2023-08-20T10:10:52;102209.69;;;23.23;77.55
59513;BME280;45330;51.634;5.562;2023-08-20T10:13:18;102201.69;;;23.23;78.99
59513;BME280;45330;51.634;5.562;2023-08-20T10:15:44;102188.38;;;23.24;80.08
59513;BME280;45330;51.634;5.562;2023-08-20T10:18:10;102192.63;;;23.28;76.48
59513;BME280;45330;51.634;5.562;2023-08-20T10:20:38;102205.41;;;23.42;75.37
59513;BME280;45330;51.634;5.562;2023-08-20T10:23:04;102207.75;;;23.50;74.83
59513;BME280;45330;51.634;5.562;2023-08-20T10:25:30;102201.81;;;23.43;73.81
59513;BME280;45330;51.634;5.562;2023-08-20T10:28:21;102197.88;;;23.54;78.93
59513;BME280;45330;51.634;5.562;2023-08-20T10:31:05;102202.50;;;23.71;79.69
59513;BME280;45330;51.634;5.562;2023-08-20T10:33:34;102170.44;;;23.53;72.05
59513;BME280;45330;51.634;5.562;2023-08-20T10:36:13;102195.66;;;23.65;75.24
59513;BME280;45330;51.634;5.562;2023-08-20T10:38:39;102203.50;;;23.68;72.81
59513;BME280;45330;51.634;5.562;2023-08-20T10:41:08;102195.66;;;23.65;74.30
59513;BME280;45330;51.634;5.562;2023-08-20T10:43:38;102203.13;;;23.77;71.68
59513;BME280;45330;51.634;5.562;2023-08-20T10:46:19;102199.72;;;23.74;73.34
59513;BME280;45330;51.634;5.562;2023-08-20T10:49:06;102210.25;;;23.77;72.61
59513;BME280;45330;51.634;5.562;2023-08-20T10:51:36;102204.13;;;23.75;67.11
59513;BME280;45330;51.634;5.562;2023-08-20T10:56:45;102193.56;;;23.73;71.47
59513;BME280;45330;51.634;5.562;2023-08-20T10:59:27;102203.34;;;23.95;69.82
59513;BME280;45330;51.634;5.562;2023-08-20T11:01:54;102209.47;;;23.97;64.05
59513;BME280;45330;51.634;5.562;2023-08-20T11:04:24;102207.75;;;23.96;63.95
59513;BME280;45330;51.634;5.562;2023-08-20T11:06:53;102194.22;;;24.02;65.58
59513;BME280;45330;51.634;5.562;2023-08-20T11:09:21;102193.94;;;24.08;65.00
59513;BME280;45330;51.634;5.562;2023-08-20T11:11:47;102195.47;;;24.14;63.53
59513;BME280;45330;51.634;5.562;2023-08-20T11:14:13;102211.31;;;24.17;64.70
59513;BME280;45330;51.634;5.562;2023-08-20T11:16:39;102213.97;;;24.17;63.84
59513;BME280;45330;51.634;5.562;2023-08-20T11:19:05;102215.63;;;24.20;63.82
59513;BME280;45330;51.634;5.562;2023-08-20T11:21:43;102207.78;;;24.17;63.56
59513;BME280;45330;51.634;5.562;2023-08-20T11:24:10;102208.41;;;24.23;61.71
59513;BME280;45330;51.634;5.562;2023-08-20T11:26:38;102215.06;;;24.34;61.85
59513;BME280;45330;51.634;5.562;2023-08-20T11:29:09;102197.22;;;24.36;61.04
59513;BME280;45330;51.634;5.562;2023-08-20T11:31:38;102202.22;;;24.43;62.91
59513;BME280;45330;51.634;5.562;2023-08-20T11:34:04;102204.75;;;24.46;61.15
59513;BME280;45330;51.634;5.562;2023-08-20T11:36:31;102196.50;;;24.53;61.99
59513;BME280;45330;51.634;5.562;2023-08-20T11:38:57;102206.06;;;24.57;60.89
59513;BME280;45330;51.634;5.562;2023-08-20T11:41:23;102183.75;;;24.40;59.85
59513;BME280;45330;51.634;5.562;2023-08-20T11:43:50;102202.47;;;24.58;60.15
59513;BME280;45330;51.634;5.562;2023-08-20T11:46:21;102190.44;;;24.49;59.09
59513;BME280;45330;51.634;5.562;2023-08-20T11:49:06;102190.97;;;24.57;63.23
59513;BME280;45330;51.634;5.562;2023-08-20T11:51:43;102184.13;;;24.52;59.52
59513;BME280;45330;51.634;5.562;2023-08-20T11:54:12;102193.31;;;24.65;59.83
59513;BME280;45330;51.634;5.562;2023-08-20T11:56:50;102181.63;;;24.69;58.87
59513;BME280;45330;51.634;5.562;2023-08-20T11:59:17;102175.38;;;24.70;58.37
59513;BME280;45330;51.634;5.562;2023-08-20T12:01:50;102185.19;;;24.89;62.15
59513;BME280;45330;51.634;5.562;2023-08-20T12:04:16;102176.19;;;24.91;58.81
59513;BME280;45330;51.634;5.562;2023-08-20T12:06:41;102167.31;;;24.91;58.76
59513;BME280;45330;51.634;5.562;2023-08-20T12:09:27;102147.38;;;24.80;59.67
59513;BME280;45330;51.634;5.562;2023-08-20T12:11:54;102154.66;;;24.96;59.68
59513;BME280;45330;51.634;5.562;2023-08-20T12:14:23;102157.56;;;24.91;58.17
59513;BME280;45330;51.634;5.562;2023-08-20T12:16:49;102148.50;;;24.95;56.10
59513;BME280;45330;51.634;5.562;2023-08-20T12:19:16;102151.22;;;25.13;57.79
59513;BME280;45330;51.634;5.562;2023-08-20T12:21:42;102137.13;;;25.11;56.46
59513;BME280;45330;51.634;5.562;2023-08-20T12:24:09;102151.22;;;25.13;57.37
59513;BME280;45330;51.634;5.562;2023-08-20T12:26:35;102149.22;;;25.18;55.96
59513;BME280;45330;51.634;5.562;2023-08-20T12:29:01;102150.72;;;25.24;54.84
59513;BME280;45330;51.634;5.562;2023-08-20T12:31:27;102148.91;;;25.24;57.18
59513;BME280;45330;51.634;5.562;2023-08-20T12:33:52;102142.38;;;25.12;54.39
59513;BME280;45330;51.634;5.562;2023-08-20T12:36:17;102133.66;;;25.09;55.40
59513;BME280;45330;51.634;5.562;2023-08-20T12:38:43;102151.56;;;25.24;54.72
59513;BME280;45330;51.634;5.562;2023-08-20T12:41:08;102140.28;;;25.19;56.13
59513;BME280;45330;51.634;5.562;2023-08-20T12:43:34;102152.47;;;25.44;57.52
59513;BME280;45330;51.634;5.562;2023-08-20T12:45:59;102153.53;;;25.40;55.70
59513;BME280;45330;51.634;5.562;2023-08-20T12:48:25;102151.53;;;25.45;55.63